createdAt,value
2019-01-27T00:01:47.528Z,5.57
2019-01-27T00:04:19.508Z,5.40
2019-01-27T00:06:50.137Z,5.80
2019-01-27T00:09:20.590Z,5.30
2019-01-27T00:11:53.848Z,6.40
2019-01-27T00:14:24.204Z,5.03
2019-01-27T00:16:55.025Z,5.00
2019-01-27T00:19:26.306Z,5.33
2019-01-27T00:22:00.411Z,5.03
2019-01-27T00:24:32.617Z,5.50
2019-01-27T00:27:04.068Z,5.53
2019-01-27T00:29:37.575Z,5.93
2019-01-27T00:32:08.257Z,4.87
2019-01-27T00:34:41.226Z,5.40
2019-01-27T00:37:11.653Z,5.90
2019-01-27T00:39:42.133Z,5.23
2019-01-27T00:42:13.597Z,5.27
2019-01-27T00:44:44.032Z,5.03
2019-01-27T00:47:15.114Z,5.47
2019-01-27T00:49:45.761Z,5.30
2019-01-27T00:52:16.312Z,5.30
2019-01-27T00:54:47.193Z,5.63
2019-01-27T00:57:18.189Z,5.23
2019-01-27T00:59:49.797Z,5.13
2019-01-27T01:02:20.436Z,4.93
2019-01-27T01:04:50.799Z,5.47
2019-01-27T01:07:21.205Z,5.93
2019-01-27T01:09:51.777Z,5.17
2019-01-27T01:12:22.147Z,4.83
2019-01-27T01:14:52.678Z,5.07
2019-01-27T01:17:23.100Z,5.07
2019-01-27T01:19:54.798Z,5.27
2019-01-27T01:22:25.274Z,5.33
2019-01-27T01:24:55.814Z,4.83
2019-01-27T01:27:26.199Z,4.80
2019-01-27T01:29:56.701Z,4.77
2019-01-27T01:32:27.121Z,4.83
2019-01-27T01:34:57.667Z,5.20
2019-01-27T01:37:28.057Z,5.03
2019-01-27T01:40:01.187Z,4.70
2019-01-27T01:42:31.605Z,4.43
2019-01-27T01:45:01.956Z,4.83
2019-01-27T01:47:32.463Z,4.70
2019-01-27T01:50:02.986Z,4.40
2019-01-27T01:52:36.450Z,4.63
2019-01-27T01:55:07.762Z,4.10
2019-01-27T01:57:39.151Z,4.57
2019-01-27T02:00:17.987Z,4.10
2019-01-27T02:02:48.702Z,4.53
2019-01-27T02:05:20.191Z,4.90
2019-01-27T02:07:50.998Z,4.30
2019-01-27T02:10:23.294Z,4.73
2019-01-27T02:12:54.257Z,4.70
2019-01-27T02:16:06.870Z,4.70
2019-01-27T02:18:38.986Z,4.40
2019-01-27T02:21:10.438Z,4.80
2019-01-27T02:23:40.902Z,4.57
2019-01-27T02:26:11.742Z,4.50
2019-01-27T02:28:42.764Z,4.93
2019-01-27T02:31:13.371Z,4.50
2019-01-27T02:33:43.740Z,4.37
2019-01-27T02:36:14.240Z,4.53
2019-01-27T02:38:44.973Z,5.00
2019-01-27T02:41:15.706Z,4.90
2019-01-27T02:43:46.709Z,4.80
2019-01-27T02:46:17.175Z,4.83
2019-01-27T02:48:47.638Z,4.60
2019-01-27T02:51:18.218Z,4.50
2019-01-27T02:53:48.840Z,4.90
2019-01-27T02:56:19.209Z,4.50
2019-01-27T02:58:49.654Z,5.17
2019-01-27T03:01:23.355Z,4.90
2019-01-27T03:03:54.065Z,4.77
2019-01-27T03:06:46.254Z,4.60
2019-01-27T03:09:23.678Z,4.80
2019-01-27T03:11:54.489Z,4.43
2019-01-27T03:14:28.632Z,4.13
2019-01-27T03:16:59.362Z,4.17
2019-01-27T03:19:29.794Z,4.30
2019-01-27T03:22:02.420Z,4.13
2019-01-27T03:24:33.141Z,3.80
2019-01-27T03:27:03.595Z,4.00
2019-01-27T03:29:34.271Z,4.07
2019-01-27T03:32:05.360Z,3.97
2019-01-27T03:34:35.943Z,4.00
2019-01-27T03:37:06.543Z,4.17
2019-01-27T03:39:37.414Z,4.27
2019-01-27T03:42:08.240Z,3.90
2019-01-27T03:44:39.442Z,3.77
2019-01-27T03:47:12.652Z,3.77
2019-01-27T03:49:43.202Z,3.80
2019-01-27T03:52:14.149Z,4.13
2019-01-27T03:54:47.294Z,3.50
2019-01-27T03:57:17.884Z,3.80
2019-01-27T03:59:48.597Z,3.33
2019-01-27T04:02:20.264Z,3.30
2019-01-27T04:04:59.292Z,3.10
2019-01-27T04:07:39.147Z,3.50
2019-01-27T04:10:14.530Z,3.30
2019-01-27T04:12:51.417Z,3.00
2019-01-27T04:15:28.956Z,3.27
2019-01-27T04:17:59.486Z,3.17
2019-01-27T04:20:29.981Z,3.00
2019-01-27T04:23:01.431Z,3.57
2019-01-27T04:25:31.926Z,3.00
2019-01-27T04:28:02.641Z,3.23
2019-01-27T04:30:39.221Z,2.70
2019-01-27T04:33:09.754Z,3.20
2019-01-27T04:35:40.234Z,3.03
2019-01-27T04:38:11.056Z,3.00
2019-01-27T04:40:42.349Z,3.27
2019-01-27T04:43:12.879Z,3.23
2019-01-27T04:45:44.948Z,3.17
2019-01-27T04:48:20.956Z,2.90
2019-01-27T04:50:55.102Z,3.20
2019-01-27T04:53:25.834Z,3.10
2019-01-27T04:55:58.804Z,2.90
2019-01-27T04:58:29.689Z,2.70
2019-01-27T05:01:00.097Z,2.80
2019-01-27T05:03:48.449Z,2.50
2019-01-27T05:06:23.247Z,3.10
2019-01-27T05:08:57.227Z,2.90
2019-01-27T05:11:27.705Z,3.07
2019-01-27T05:14:00.075Z,2.37
2019-01-27T05:16:32.520Z,2.40
2019-01-27T05:19:02.868Z,2.83
2019-01-27T05:21:34.517Z,2.80
2019-01-27T05:24:05.274Z,2.70
2019-01-27T05:26:35.636Z,2.80
2019-01-27T05:29:09.128Z,3.13
2019-01-27T05:31:39.624Z,2.50
2019-01-27T05:34:10.627Z,2.70
2019-01-27T05:36:41.038Z,2.60
2019-01-27T05:39:11.548Z,2.80
2019-01-27T05:41:42.069Z,2.40
2019-01-27T05:44:22.291Z,2.27
2019-01-27T05:46:55.250Z,2.77
2019-01-27T05:49:30.293Z,2.70
2019-01-27T05:52:04.912Z,2.53
2019-01-27T05:54:46.448Z,2.47
2019-01-27T05:57:22.967Z,2.30
2019-01-27T05:59:53.630Z,2.47
2019-01-27T06:02:24.032Z,2.60
2019-01-27T06:04:56.816Z,2.33
2019-01-27T06:07:27.254Z,2.40
2019-01-27T06:09:58.375Z,2.40
2019-01-27T06:12:29.219Z,2.20
2019-01-27T06:14:59.921Z,2.30
2019-01-27T06:17:30.952Z,2.30
2019-01-27T06:20:07.668Z,2.30
2019-01-27T06:22:38.186Z,2.27
2019-01-27T06:25:12.204Z,2.70
2019-01-27T06:27:44.985Z,2.80
2019-01-27T06:30:21.793Z,2.37
2019-01-27T06:33:06.676Z,2.67
2019-01-27T06:35:50.363Z,2.90
2019-01-27T06:38:16.503Z,2.73
2019-01-27T06:40:46.931Z,2.73
2019-01-27T06:43:17.441Z,2.70
2019-01-27T06:45:47.899Z,2.50
2019-01-27T06:48:18.397Z,2.70
2019-01-27T06:50:49.001Z,2.40
2019-01-27T06:53:19.487Z,2.57
2019-01-27T06:55:49.951Z,2.60
2019-01-27T06:58:22.113Z,2.60
2019-01-27T07:01:17.614Z,2.90
2019-01-27T07:04:25.145Z,2.77
2019-01-27T07:07:02.455Z,2.33
2019-01-27T07:09:42.906Z,2.43
2019-01-27T07:12:31.152Z,2.90
2019-01-27T07:15:21.198Z,2.80
2019-01-27T07:18:13.270Z,3.00
2019-01-27T07:20:57.474Z,2.90
2019-01-27T07:23:38.407Z,3.10
2019-01-27T07:26:34.474Z,2.70
2019-01-27T07:29:15.495Z,2.90
2019-01-27T07:32:11.426Z,2.77
2019-01-27T07:34:57.259Z,2.93
2019-01-27T07:37:35.526Z,3.13
2019-01-27T07:40:27.817Z,3.00
2019-01-27T07:43:12.330Z,3.40
2019-01-27T07:45:47.778Z,2.70
2019-01-27T07:48:35.983Z,2.90
2019-01-27T07:51:37.458Z,2.90
2019-01-27T07:54:39.114Z,3.17
2019-01-27T07:57:28.803Z,3.03
2019-01-27T08:00:05.937Z,3.20
2019-01-27T08:02:58.138Z,3.33
2019-01-27T08:05:36.352Z,2.90
2019-01-27T08:08:26.120Z,3.20
2019-01-27T08:11:21.375Z,3.27
2019-01-27T08:14:19.765Z,3.10
2019-01-27T08:17:21.369Z,3.50
2019-01-27T08:20:10.031Z,3.00
2019-01-27T08:22:59.703Z,3.50
2019-01-27T08:25:44.768Z,3.90
2019-01-27T08:28:22.411Z,3.27
2019-01-27T08:31:11.274Z,3.80
2019-01-27T08:34:03.764Z,3.23
2019-01-27T08:36:45.397Z,3.23
2019-01-27T08:39:44.462Z,3.20
2019-01-27T08:42:33.910Z,3.93
2019-01-27T08:45:26.687Z,4.03
2019-01-27T08:47:57.168Z,3.80
2019-01-27T08:50:27.553Z,3.43
2019-01-27T08:52:58.364Z,3.67
2019-01-27T08:55:34.669Z,3.60
2019-01-27T08:58:05.147Z,3.23
2019-01-27T09:00:38.372Z,3.47
2019-01-27T09:03:30.379Z,3.90
2019-01-27T09:06:25.542Z,3.67
2019-01-27T09:09:18.251Z,3.43
2019-01-27T09:11:56.435Z,3.67
2019-01-27T09:14:45.834Z,3.63
2019-01-27T09:17:39.201Z,3.93
2019-01-27T09:20:32.693Z,3.60
2019-01-27T09:23:30.006Z,3.87
2019-01-27T09:26:25.402Z,3.57
2019-01-27T09:29:03.721Z,3.30
2019-01-27T09:31:44.853Z,4.17
2019-01-27T09:34:33.244Z,3.30
2019-01-27T09:37:28.967Z,3.90
2019-01-27T09:40:18.785Z,3.87
2019-01-27T09:43:16.551Z,3.90
2019-01-27T09:49:15.160Z,3.40
2019-01-27T09:52:06.959Z,3.13
2019-01-27T09:54:50.295Z,3.47
2019-01-27T09:57:45.789Z,3.37
2019-01-27T10:00:36.798Z,3.30
2019-01-27T10:03:46.810Z,2.97
2019-01-27T10:07:05.744Z,2.77
2019-01-27T10:10:43.065Z,3.23
2019-01-27T10:14:22.597Z,2.43
2019-01-27T10:17:43.183Z,2.80
2019-01-27T10:21:02.281Z,2.67
2019-01-27T10:24:34.674Z,2.43
2019-01-27T10:27:42.311Z,2.27
2019-01-27T10:34:22.826Z,2.23
2019-01-27T10:37:15.277Z,2.60
2019-01-27T10:40:09.224Z,2.87
2019-01-27T10:43:00.541Z,2.60
2019-01-27T10:45:59.872Z,2.80
2019-01-27T10:48:45.644Z,2.80
2019-01-27T10:51:27.263Z,3.03
2019-01-27T10:54:23.265Z,2.70
2019-01-27T10:57:21.955Z,2.90
2019-01-27T11:00:27.017Z,2.77
2019-01-27T11:03:20.625Z,2.70
2019-01-27T11:06:17.698Z,3.00
2019-01-27T11:09:29.017Z,2.23
2019-01-27T11:12:22.252Z,2.43
2019-01-27T11:15:21.763Z,2.47
2019-01-27T11:18:13.270Z,2.23
2019-01-27T11:21:09.126Z,2.10
2019-01-27T11:24:06.359Z,2.30
2019-01-27T11:27:01.760Z,2.17
2019-01-27T11:30:53.601Z,1.80
2019-01-27T11:33:53.553Z,2.10
2019-01-27T11:37:00.579Z,2.20
2019-01-27T11:40:18.561Z,1.83
2019-01-27T11:43:18.854Z,1.80
2019-01-27T11:49:56.476Z,2.00
2019-01-27T11:53:09.037Z,1.90
2019-01-27T11:55:53.277Z,2.23
2019-01-27T11:58:35.510Z,1.93
2019-01-27T12:01:22.857Z,1.87
2019-01-27T12:04:19.980Z,1.83
2019-01-27T12:06:57.226Z,1.73
2019-01-27T12:10:14.335Z,2.10
2019-01-27T12:12:47.624Z,2.07
2019-01-27T12:15:44.930Z,2.30
2019-01-27T12:18:45.821Z,2.00
2019-01-27T12:22:23.798Z,2.20
2019-01-27T12:28:12.232Z,1.90
2019-01-27T12:32:02.895Z,1.97
2019-01-27T12:34:33.404Z,2.20
2019-01-27T12:37:22.720Z,2.20
2019-01-27T12:39:56.842Z,2.10
2019-01-27T12:42:33.547Z,2.13
2019-01-27T12:45:04.531Z,2.10
2019-01-27T12:47:35.754Z,2.20
2019-01-27T12:50:10.242Z,2.30
2019-01-27T12:52:41.253Z,2.30
2019-01-27T12:55:20.027Z,1.70
2019-01-27T12:57:52.462Z,2.23
2019-01-27T13:00:31.463Z,2.07
2019-01-27T13:03:05.625Z,2.17
2019-01-27T13:05:36.296Z,2.17
2019-01-27T13:08:06.790Z,2.63
2019-01-27T13:10:39.595Z,2.30
2019-01-27T13:13:12.101Z,2.60
2019-01-27T13:15:42.875Z,2.70
2019-01-27T13:18:13.416Z,2.63
2019-01-27T13:20:46.407Z,2.43
2019-01-27T13:23:22.626Z,6.87
2019-01-27T13:25:53.058Z,6.30
2019-01-27T13:28:27.111Z,5.63
2019-01-27T13:30:57.814Z,3.53
2019-01-27T13:33:28.779Z,5.57
2019-01-27T13:35:59.776Z,3.40
2019-01-27T13:38:33.378Z,5.17
2019-01-27T13:41:04.517Z,5.17
2019-01-27T13:43:37.933Z,5.97
2019-01-27T13:46:15.886Z,14.33
2019-01-27T13:48:48.415Z,6.07
2019-01-27T13:51:30.230Z,3.97
2019-01-27T13:54:07.180Z,2.67
2019-01-27T13:56:39.227Z,3.10
2019-01-27T13:59:10.057Z,5.63
2019-01-27T14:01:41.624Z,3.30
2019-01-27T14:04:14.226Z,3.57
2019-01-27T14:06:45.454Z,4.73
2019-01-27T14:09:18.630Z,4.53
2019-01-27T14:11:53.149Z,3.20
2019-01-27T14:14:25.483Z,5.00
2019-01-27T14:16:59.151Z,5.90
2019-01-27T14:19:31.199Z,3.43
2019-01-27T14:22:05.243Z,3.57
2019-01-27T14:24:39.092Z,3.10
2019-01-27T14:27:12.717Z,3.20
2019-01-27T14:29:43.686Z,3.13
2019-01-27T14:32:15.115Z,3.27
2019-01-27T14:34:45.916Z,5.10
2019-01-27T14:37:16.573Z,6.10
2019-01-27T14:39:49.347Z,6.67
2019-01-27T14:42:21.326Z,5.30
2019-01-27T14:44:53.385Z,5.20
2019-01-27T14:47:25.676Z,8.90
2019-01-27T14:50:02.446Z,6.90
2019-01-27T14:52:45.582Z,4.63
2019-01-27T14:55:23.588Z,9.90
2019-01-27T14:57:55.643Z,3.90
2019-01-27T15:00:30.036Z,4.20
2019-01-27T15:03:06.702Z,6.07
2019-01-27T15:05:37.457Z,4.90
2019-01-27T15:08:09.200Z,6.00
2019-01-27T15:10:41.967Z,3.73
2019-01-27T15:13:13.204Z,4.50
2019-01-27T15:15:45.297Z,4.07
2019-01-27T15:18:19.854Z,3.17
2019-01-27T15:21:05.917Z,3.77
2019-01-27T15:23:41.026Z,2.60
2019-01-27T15:26:13.895Z,8.27
2019-01-27T15:28:56.037Z,6.33
2019-01-27T15:31:44.127Z,3.27
2019-01-27T15:34:18.384Z,2.70
2019-01-27T15:36:52.968Z,3.00
2019-01-27T15:39:29.430Z,3.53
2019-01-27T15:42:07.868Z,2.97
2019-01-27T15:44:42.835Z,2.90
2019-01-27T15:47:18.734Z,2.37
2019-01-27T15:49:57.236Z,3.50
2019-01-27T15:52:32.260Z,3.60
2019-01-27T15:55:08.433Z,13.33
2019-01-27T15:57:42.633Z,7.83
2019-01-27T16:00:28.533Z,6.03
2019-01-27T16:03:04.441Z,9.63
2019-01-27T16:05:43.695Z,9.07
2019-01-27T16:08:26.942Z,6.03
2019-01-27T16:11:10.109Z,5.60
2019-01-27T16:13:45.006Z,5.83
2019-01-27T16:16:27.734Z,4.50
2019-01-27T16:19:00.773Z,3.23
2019-01-27T16:21:55.576Z,2.80
2019-01-27T16:24:32.711Z,7.37
2019-01-27T16:27:07.685Z,26.67
2019-01-27T16:30:44.929Z,17.80
2019-01-27T16:33:22.336Z,14.23
2019-01-27T16:35:57.804Z,4.70
2019-01-27T16:38:35.720Z,3.03
2019-01-27T16:41:08.834Z,2.40
2019-01-27T16:43:40.055Z,2.30
2019-01-27T16:46:13.744Z,7.33
2019-01-27T16:49:04.446Z,5.77
2019-01-27T16:52:10.432Z,5.57
2019-01-27T16:54:58.103Z,5.87
2019-01-27T16:57:58.936Z,6.20
2019-01-27T17:00:38.943Z,3.07
2019-01-27T17:03:29.204Z,9.93
2019-01-27T17:06:01.279Z,6.53
2019-01-27T17:08:37.849Z,5.07
2019-01-27T17:11:40.926Z,5.03
2019-01-27T17:14:27.935Z,5.17
2019-01-27T17:17:10.565Z,3.30
2019-01-27T17:20:02.322Z,2.60
2019-01-27T17:22:36.188Z,2.80
2019-01-27T17:25:23.010Z,9.33
2019-01-27T17:27:58.179Z,22.00
2019-01-27T17:30:40.025Z,12.07
2019-01-27T17:33:17.624Z,10.00
2019-01-27T17:35:50.504Z,5.77
2019-01-27T17:38:26.871Z,6.57
2019-01-27T17:41:17.288Z,18.87
2019-01-27T17:43:48.293Z,16.57
2019-01-27T17:46:22.669Z,11.57
2019-01-27T17:49:05.424Z,6.27
2019-01-27T17:51:45.639Z,5.80
2019-01-27T17:54:20.067Z,3.03
2019-01-27T17:57:04.998Z,2.90
2019-01-27T17:59:57.467Z,3.13
2019-01-27T18:02:57.939Z,3.93
2019-01-27T18:05:36.174Z,3.83
2019-01-27T18:08:19.372Z,3.87
2019-01-27T18:10:57.499Z,3.77
2019-01-27T18:13:37.522Z,13.03
2019-01-27T18:16:13.859Z,7.30
2019-01-27T18:18:49.338Z,4.40
2019-01-27T18:21:21.110Z,4.00
2019-01-27T18:23:54.337Z,3.40
2019-01-27T18:26:28.260Z,5.03
2019-01-27T18:29:21.998Z,6.63
2019-01-27T18:31:52.804Z,4.47
2019-01-27T18:34:23.904Z,3.83
2019-01-27T18:36:54.779Z,3.30
2019-01-27T18:39:30.276Z,3.30
2019-01-27T18:42:05.384Z,4.10
2019-01-27T18:44:36.845Z,5.17
2019-01-27T18:47:07.729Z,4.60
2019-01-27T18:49:39.069Z,3.93
2019-01-27T18:52:18.412Z,3.77
2019-01-27T18:55:17.810Z,4.03
2019-01-27T18:58:25.793Z,3.90
2019-01-27T19:01:28.626Z,4.07
2019-01-27T19:04:11.238Z,5.03
2019-01-27T19:07:09.869Z,6.90
2019-01-27T19:10:13.118Z,5.07
2019-01-27T19:13:13.099Z,3.67
2019-01-27T19:16:27.283Z,4.50
2019-01-27T19:19:59.398Z,8.67
2019-01-27T19:22:46.297Z,5.57
2019-01-27T19:25:32.823Z,5.37
2019-01-27T19:28:45.387Z,5.40
2019-01-27T19:31:43.917Z,6.23
2019-01-27T19:34:41.255Z,7.37
2019-01-27T19:37:42.550Z,4.00
2019-01-27T19:40:36.955Z,4.00
2019-01-27T19:43:17.193Z,3.67
2019-01-27T19:46:06.764Z,3.40
2019-01-27T19:49:29.604Z,3.43
2019-01-27T19:52:31.162Z,8.17
2019-01-27T19:55:19.917Z,5.20
2019-01-27T19:58:19.865Z,3.50
2019-01-27T20:01:11.872Z,4.03
2019-01-27T20:04:04.207Z,3.60
2019-01-27T20:06:47.088Z,4.13
2019-01-27T20:09:35.667Z,4.03
2019-01-27T20:12:41.742Z,4.73
2019-01-27T20:15:52.213Z,4.03
2019-01-27T20:19:03.281Z,9.40
2019-01-27T20:22:01.819Z,10.93
2019-01-27T20:25:02.414Z,6.73
2019-01-27T20:28:31.411Z,4.37
2019-01-27T20:31:44.351Z,3.97
2019-01-27T20:34:50.754Z,4.13
2019-01-27T20:37:40.694Z,4.27
2019-01-27T20:40:39.325Z,4.40
2019-01-27T20:43:38.303Z,4.00
2019-01-27T20:46:54.945Z,3.60
2019-01-27T20:49:50.054Z,3.90
2019-01-27T20:52:45.316Z,3.80
2019-01-27T20:55:34.062Z,4.53
2019-01-27T20:58:30.832Z,4.13
2019-01-27T21:01:12.761Z,3.87
2019-01-27T21:04:00.546Z,4.20
2019-01-27T21:06:57.582Z,4.10
2019-01-27T21:09:54.196Z,4.40
2019-01-27T21:12:43.959Z,4.47
2019-01-27T21:15:50.481Z,4.27
2019-01-27T21:18:49.564Z,4.13
2019-01-27T21:21:27.154Z,4.00
2019-01-27T21:24:27.738Z,3.60
2019-01-27T21:27:06.602Z,4.20
2019-01-27T21:29:53.245Z,4.03
2019-01-27T21:32:29.168Z,4.00
2019-01-27T21:35:10.138Z,3.93
2019-01-27T21:37:54.708Z,4.27
2019-01-27T21:40:54.946Z,3.90
2019-01-27T21:43:30.574Z,4.13
2019-01-27T21:46:04.432Z,3.67
2019-01-27T21:48:35.848Z,4.10
2019-01-27T21:51:11.783Z,4.10
2019-01-27T21:53:45.921Z,3.97
2019-01-27T21:56:24.087Z,3.70
2019-01-27T21:59:18.354Z,4.17
2019-01-27T22:01:55.309Z,4.13
2019-01-27T22:04:56.254Z,4.00
2019-01-27T22:07:09.848Z,3.80
2019-01-27T22:09:52.603Z,3.90
2019-01-27T22:12:23.764Z,4.53
2019-01-27T22:15:11.334Z,4.43
2019-01-27T22:17:41.815Z,4.10
2019-01-27T22:20:15.050Z,3.97
2019-01-27T22:22:53.280Z,4.00
2019-01-27T22:25:31.889Z,4.00
2019-01-27T22:28:03.143Z,4.37
2019-01-27T22:30:43.350Z,3.90
2019-01-27T22:33:52.219Z,3.97
2019-01-27T22:36:34.545Z,4.33
2019-01-27T22:39:16.845Z,3.70
2019-01-27T22:41:48.501Z,3.80
2019-01-27T22:44:22.255Z,3.90
2019-01-27T22:46:53.049Z,3.87
2019-01-27T22:49:25.301Z,3.67
2019-01-27T22:51:55.843Z,3.80
2019-01-27T22:54:29.213Z,3.33
2019-01-27T22:57:04.517Z,3.30
2019-01-27T22:59:36.204Z,3.73
2019-01-27T23:02:16.559Z,3.50
2019-01-27T23:04:53.392Z,3.37
2019-01-27T23:07:23.988Z,3.40
2019-01-27T23:10:11.744Z,3.50
2019-01-27T23:12:32.631Z,3.67
2019-01-27T23:15:03.517Z,3.33
2019-01-27T23:17:34.127Z,3.70
2019-01-27T23:20:08.807Z,3.50
2019-01-27T23:22:43.780Z,3.40
2019-01-27T23:25:14.654Z,3.33
2019-01-27T23:27:45.961Z,3.50
2019-01-27T23:30:16.524Z,3.43
2019-01-27T23:32:49.572Z,3.17
2019-01-27T23:35:22.530Z,4.00
2019-01-27T23:37:57.021Z,3.10
2019-01-27T23:40:38.642Z,3.23
2019-01-27T23:43:12.129Z,3.33
2019-01-27T23:45:42.732Z,3.33
2019-01-27T23:48:14.384Z,3.17
2019-01-27T23:50:46.804Z,3.27
2019-01-27T23:53:19.270Z,3.13
2019-01-27T23:55:55.408Z,3.10
2019-01-27T23:58:31.388Z,3.13
